createdAt,value
2022-11-25T00:00:33.639Z,99701.59
2022-11-25T00:01:20.933Z,99695.97
2022-11-25T00:02:02.656Z,99701.78
2022-11-25T00:02:44.795Z,99671.47
2022-11-25T00:03:26.564Z,99693.81
2022-11-25T00:04:08.428Z,99687.63
2022-11-25T00:04:50.129Z,99691.47
2022-11-25T00:05:31.773Z,99699.75
2022-11-25T00:06:13.463Z,99696.03
2022-11-25T00:06:55.197Z,99687.06
2022-11-25T00:07:37.133Z,99695.34
2022-11-25T00:08:18.824Z,99688.88
2022-11-25T00:09:09.965Z,99685.16
2022-11-25T00:09:51.600Z,99658.59
2022-11-25T00:10:33.488Z,99687.09
2022-11-25T00:11:16.401Z,99685.44
2022-11-25T00:11:57.994Z,99680.09
2022-11-25T00:12:39.669Z,99669.75
2022-11-25T00:13:21.316Z,99679.38
2022-11-25T00:14:03.524Z,99672.09
2022-11-25T00:14:45.161Z,99682.13
2022-11-25T00:15:26.860Z,99651.13
2022-11-25T00:16:11.717Z,99678.28
2022-11-25T00:16:53.460Z,99683.91
2022-11-25T00:17:35.148Z,99670.03
2022-11-25T00:18:16.807Z,99666.31
2022-11-25T00:18:58.984Z,99684.47
2022-11-25T00:19:40.640Z,99679.78
2022-11-25T00:20:22.525Z,99674.41
2022-11-25T00:21:09.364Z,99681.03
2022-11-25T00:21:50.999Z,99677.16
2022-11-25T00:22:32.646Z,99681.31
2022-11-25T00:23:14.291Z,99681.31
2022-11-25T00:24:00.944Z,99671.94
2022-11-25T00:24:42.800Z,99686.00
2022-11-25T00:25:24.469Z,99675.66
2022-11-25T00:26:11.949Z,99679.69
2022-11-25T00:26:53.638Z,99628.69
2022-11-25T00:27:35.299Z,99661.63
2022-11-25T00:28:20.057Z,99668.91
2022-11-25T00:29:07.207Z,99642.47
2022-11-25T00:29:50.735Z,99674.72
2022-11-25T00:30:32.971Z,99670.69
2022-11-25T00:31:26.335Z,99670.00
2022-11-25T00:32:08.084Z,99665.88
2022-11-25T00:32:49.809Z,99661.47
2022-11-25T00:33:31.474Z,99645.06
2022-11-25T00:34:14.370Z,99661.75
2022-11-25T00:34:56.061Z,99663.69
2022-11-25T00:35:37.689Z,99662.16
2022-11-25T00:36:23.784Z,99656.78
2022-11-25T00:37:05.560Z,99666.44
2022-11-25T00:37:47.256Z,99636.13
2022-11-25T00:38:29.626Z,99665.31
2022-11-25T00:39:16.656Z,99667.41
2022-11-25T00:39:58.258Z,99626.44
2022-11-25T00:40:39.987Z,99640.09
2022-11-25T00:41:40.498Z,99671.63
2022-11-25T00:42:57.510Z,99675.50
2022-11-25T00:43:58.064Z,99668.88
2022-11-25T00:44:40.941Z,99668.44
2022-11-25T00:45:23.873Z,99672.56
2022-11-25T00:46:05.622Z,99671.50
2022-11-25T00:46:47.315Z,99671.50
2022-11-25T00:47:29.501Z,99659.75
2022-11-25T00:48:11.404Z,99635.38
2022-11-25T00:48:53.103Z,99670.25
2022-11-25T00:49:35.170Z,99663.09
2022-11-25T00:50:16.857Z,99661.47
2022-11-25T00:50:58.496Z,99669.72
2022-11-25T00:51:40.249Z,99642.72
2022-11-25T00:52:24.864Z,99660.06
2022-11-25T00:53:06.548Z,99643.97
2022-11-25T00:53:48.250Z,99666.97
2022-11-25T00:54:30.255Z,99668.50
2022-11-25T00:55:11.894Z,99654.19
2022-11-25T00:56:12.097Z,99654.44
2022-11-25T00:56:53.977Z,99674.03
2022-11-25T00:57:35.638Z,99672.06
2022-11-25T00:58:17.275Z,99649.09
2022-11-25T00:58:58.907Z,99653.47
2022-11-25T00:59:40.593Z,99675.94
2022-11-25T01:00:22.402Z,99662.44
2022-11-25T01:01:04.279Z,99677.16
2022-11-25T01:01:46.574Z,99655.97
2022-11-25T01:02:28.370Z,99673.84
2022-11-25T01:03:11.157Z,99667.09
2022-11-25T01:03:53.653Z,99688.31
2022-11-25T01:04:35.747Z,99682.41
2022-11-25T01:05:17.621Z,99683.09
2022-11-25T01:06:03.860Z,99659.13
2022-11-25T01:06:45.657Z,99671.94
2022-11-25T01:07:29.992Z,99692.59
2022-11-25T01:08:11.756Z,99690.13
2022-11-25T01:08:53.921Z,99662.81
2022-11-25T01:09:35.987Z,99684.06
2022-11-25T01:10:18.580Z,99660.19
2022-11-25T01:11:06.451Z,99689.84
2022-11-25T01:11:50.933Z,99693.56
2022-11-25T01:12:32.573Z,99686.25
2022-11-25T01:13:14.250Z,99690.94
2022-11-25T01:14:00.783Z,99700.84
2022-11-25T01:14:42.696Z,99688.84
2022-11-25T01:15:25.386Z,99688.03
2022-11-25T01:16:08.658Z,99689.41
2022-11-25T01:16:50.845Z,99684.88
2022-11-25T01:17:32.543Z,99689.81
2022-11-25T01:18:14.196Z,99687.06
2022-11-25T01:18:56.015Z,99692.31
2022-11-25T01:19:41.842Z,99688.19
2022-11-25T01:20:23.511Z,99685.84
2022-11-25T01:21:11.132Z,99683.47
2022-11-25T01:21:52.790Z,99688.16
2022-11-25T01:22:34.516Z,99685.66
2022-11-25T01:23:17.727Z,99674.94
2022-11-25T01:24:01.493Z,99681.81
2022-11-25T01:24:43.107Z,99688.47
2022-11-25T01:25:24.756Z,99684.88
2022-11-25T01:26:33.560Z,99684.31
2022-11-25T01:27:15.216Z,99682.66
2022-11-25T01:27:57.085Z,99690.25
2022-11-25T01:28:39.170Z,99687.63
2022-11-25T01:29:20.923Z,99679.22
2022-11-25T01:30:02.604Z,99686.25
2022-11-25T01:30:44.271Z,99662.28
2022-11-25T01:31:34.463Z,99691.59
2022-11-25T01:32:16.293Z,99687.06
2022-11-25T01:32:58.089Z,99686.94
2022-11-25T01:33:42.184Z,99681.31
2022-11-25T01:34:26.203Z,99683.50
2022-11-25T01:35:08.458Z,99688.84
2022-11-25T01:35:50.080Z,99681.31
2022-11-25T01:36:31.808Z,99682.13
2022-11-25T01:37:13.503Z,99682.97
2022-11-25T01:37:55.269Z,99683.22
2022-11-25T01:38:40.054Z,99681.81
2022-11-25T01:39:28.664Z,99689.25
2022-11-25T01:40:13.728Z,99692.28
2022-11-25T01:40:55.534Z,99695.03
2022-11-25T01:41:37.228Z,99682.06
2022-11-25T01:42:19.916Z,99694.19
2022-11-25T01:43:01.691Z,99702.75
2022-11-25T01:43:43.393Z,99691.00
2022-11-25T01:44:30.376Z,99669.00
2022-11-25T01:45:27.994Z,99704.84
2022-11-25T01:46:19.392Z,99700.03
2022-11-25T01:47:03.967Z,99704.72
2022-11-25T01:47:45.614Z,99702.09
2022-11-25T01:48:50.027Z,99705.56
2022-11-25T01:49:39.731Z,99701.28
2022-11-25T01:50:23.875Z,99698.94
2022-11-25T01:51:06.376Z,99697.41
2022-11-25T01:51:57.674Z,99695.75
2022-11-25T01:52:45.930Z,99696.84
2022-11-25T01:53:27.719Z,99707.72
2022-11-25T01:54:16.114Z,99689.66
2022-11-25T01:55:03.288Z,99706.88
2022-11-25T01:55:51.352Z,99701.78
2022-11-25T01:56:37.975Z,99708.94
2022-11-25T01:57:28.139Z,99703.84
2022-11-25T01:58:17.466Z,99705.63
2022-11-25T01:58:59.576Z,99706.31
2022-11-25T01:59:45.992Z,99704.91
2022-11-25T02:00:27.781Z,99712.50
2022-11-25T02:01:09.885Z,99710.72
2022-11-25T02:01:52.760Z,99706.44
2022-11-25T02:02:36.296Z,99709.75
2022-11-25T02:03:29.168Z,99710.69
2022-11-25T02:04:14.611Z,99716.63
2022-11-25T02:04:59.134Z,99718.81
2022-11-25T02:05:52.660Z,99715.13
2022-11-25T02:06:45.111Z,99708.22
2022-11-25T02:07:29.922Z,99710.72
2022-11-25T02:08:12.953Z,99708.09
2022-11-25T02:09:04.567Z,99715.38
2022-11-25T02:09:47.239Z,99708.38
2022-11-25T02:10:32.170Z,99708.38
2022-11-25T02:11:14.792Z,99686.97
2022-11-25T02:11:56.935Z,99694.84
2022-11-25T02:12:41.266Z,99709.63
2022-11-25T02:13:23.832Z,99713.19
2022-11-25T02:14:06.927Z,99711.53
2022-11-25T02:14:51.042Z,99697.19
2022-11-25T02:15:35.226Z,99715.69
2022-11-25T02:16:19.181Z,99706.31
2022-11-25T02:17:02.548Z,99713.63
2022-11-25T02:17:44.955Z,99692.84
2022-11-25T02:18:27.396Z,99702.22
2022-11-25T02:19:20.853Z,99704.44
2022-11-25T02:20:12.255Z,99712.84
2022-11-25T02:20:54.726Z,99702.63
2022-11-25T02:21:47.526Z,99713.41
2022-11-25T02:22:56.978Z,99673.97
2022-11-25T02:23:47.419Z,99707.03
2022-11-25T02:24:51.502Z,99704.44
2022-11-25T02:25:38.386Z,99709.00
2022-11-25T02:26:24.008Z,99709.13
2022-11-25T02:27:05.846Z,99681.00
2022-11-25T02:27:52.492Z,99705.41
2022-11-25T02:28:34.946Z,99707.75
2022-11-25T02:29:18.611Z,99710.94
2022-11-25T02:30:00.281Z,99703.63
2022-11-25T02:30:42.797Z,99693.44
2022-11-25T02:31:24.923Z,99701.97
2022-11-25T02:32:06.787Z,99703.63
2022-11-25T02:32:48.961Z,99705.44
2022-11-25T02:33:30.673Z,99675.25
2022-11-25T02:34:12.320Z,99695.91
2022-11-25T02:34:53.978Z,99701.56
2022-11-25T02:35:37.309Z,99700.75
2022-11-25T02:36:22.561Z,99703.25
2022-11-25T02:37:04.371Z,99704.06
2022-11-25T02:37:47.097Z,99699.63
2022-11-25T02:38:41.387Z,99695.38
2022-11-25T02:39:24.667Z,99693.69
2022-11-25T02:40:06.941Z,99688.75
2022-11-25T02:40:59.848Z,99700.06
2022-11-25T02:41:47.939Z,99695.09
2022-11-25T02:42:29.983Z,99690.13
2022-11-25T02:43:13.252Z,99689.56
2022-11-25T02:43:55.051Z,99688.47
2022-11-25T02:44:37.316Z,99664.34
2022-11-25T02:45:26.798Z,99698.94
2022-11-25T02:46:21.856Z,99682.53
2022-11-25T02:47:04.458Z,99678.97
2022-11-25T02:47:46.230Z,99690.81
2022-11-25T02:49:00.985Z,99678.25
2022-11-25T02:49:33.342Z,99692.34
2022-11-25T02:50:15.256Z,99688.91
2022-11-25T02:50:57.665Z,99694.97
2022-11-25T02:51:43.899Z,99675.66
2022-11-25T02:52:25.770Z,99694.53
2022-11-25T02:53:08.140Z,99691.25
2022-11-25T02:53:52.040Z,99699.38
2022-11-25T02:54:35.228Z,99700.19
2022-11-25T02:55:17.234Z,99698.13
2022-11-25T02:55:59.275Z,99651.69
2022-11-25T02:56:41.647Z,99700.06
2022-11-25T02:57:23.789Z,99686.13
2022-11-25T02:58:05.441Z,99692.63
2022-11-25T02:58:47.136Z,99691.50
2022-11-25T02:59:28.788Z,99699.34
2022-11-25T03:00:11.209Z,99677.72
2022-11-25T03:00:55.485Z,99698.13
2022-11-25T03:01:38.462Z,99688.06
2022-11-25T03:02:22.054Z,99696.22
2022-11-25T03:03:03.995Z,99688.75
2022-11-25T03:03:45.712Z,99655.28
2022-11-25T03:04:27.621Z,99680.91
2022-11-25T03:05:09.563Z,99688.34
2022-11-25T03:05:53.621Z,99687.09
2022-11-25T03:06:35.431Z,99676.19
2022-11-25T03:07:17.107Z,99688.19
2022-11-25T03:07:59.716Z,99687.78
2022-11-25T03:08:41.599Z,99685.72
2022-11-25T03:09:26.469Z,99682.81
2022-11-25T03:10:09.383Z,99682.69
2022-11-25T03:10:51.170Z,99685.03
2022-11-25T03:11:51.467Z,99683.94
2022-11-25T03:12:35.017Z,99645.34
2022-11-25T03:13:16.834Z,99677.97
2022-11-25T03:13:58.508Z,99679.63
2022-11-25T03:14:40.323Z,99637.91
2022-11-25T03:15:25.590Z,99668.31
2022-11-25T03:16:08.037Z,99668.59
2022-11-25T03:16:50.239Z,99666.56
2022-11-25T03:17:31.933Z,99665.47
2022-11-25T03:18:13.739Z,99668.91
2022-11-25T03:18:56.702Z,99662.69
2022-11-25T03:19:38.551Z,99668.63
2022-11-25T03:20:20.702Z,99635.16
2022-11-25T03:21:02.814Z,99661.59
2022-11-25T03:21:44.459Z,99660.91
2022-11-25T03:22:26.378Z,99659.41
2022-11-25T03:23:08.379Z,99655.97
2022-11-25T03:23:49.981Z,99663.00
2022-11-25T03:24:33.202Z,99655.13
2022-11-25T03:25:16.510Z,99657.75
2022-11-25T03:25:58.539Z,99658.44
2022-11-25T03:26:40.546Z,99647.56
2022-11-25T03:27:23.085Z,99596.31
2022-11-25T03:28:04.901Z,99636.78
2022-11-25T03:28:47.370Z,99614.66
2022-11-25T03:29:29.127Z,99660.91
2022-11-25T03:30:22.861Z,99664.06
2022-11-25T03:31:11.122Z,99662.00
2022-11-25T03:31:53.020Z,99665.44
2022-11-25T03:32:35.639Z,99662.94
2022-11-25T03:33:17.347Z,99654.53
2022-11-25T03:34:00.415Z,99648.50
2022-11-25T03:34:42.156Z,99650.00
2022-11-25T03:35:24.377Z,99636.25
2022-11-25T03:36:06.388Z,99667.81
2022-11-25T03:36:48.303Z,99668.22
2022-11-25T03:37:30.016Z,99669.31
2022-11-25T03:38:11.650Z,99669.72
2022-11-25T03:38:53.310Z,99639.44
2022-11-25T03:39:35.072Z,99641.09
2022-11-25T03:40:17.242Z,99671.66
2022-11-25T03:40:59.703Z,99668.34
2022-11-25T03:41:41.488Z,99667.13
2022-11-25T03:42:23.142Z,99658.97
2022-11-25T03:43:05.298Z,99678.00
2022-11-25T03:43:48.867Z,99665.19
2022-11-25T03:44:30.631Z,99681.03
2022-11-25T03:45:14.398Z,99682.28
2022-11-25T03:45:56.204Z,99678.28
2022-11-25T03:46:37.976Z,99676.09
2022-11-25T03:47:21.730Z,99637.38
2022-11-25T03:48:03.655Z,99678.97
2022-11-25T03:48:45.403Z,99674.41
2022-11-25T03:49:27.832Z,99653.63
2022-11-25T03:50:10.720Z,99670.25
2022-11-25T03:50:52.332Z,99671.63
2022-11-25T03:51:34.771Z,99665.31
2022-11-25T03:52:17.142Z,99666.13
2022-11-25T03:52:59.784Z,99672.44
2022-11-25T03:53:41.798Z,99671.22
2022-11-25T03:54:24.743Z,99674.66
2022-11-25T03:55:29.404Z,99666.66
2022-11-25T03:56:11.077Z,99654.78
2022-11-25T03:56:52.909Z,99666.06
2022-11-25T03:57:35.291Z,99667.44
2022-11-25T03:58:17.241Z,99652.44
2022-11-25T03:58:58.912Z,99659.31
2022-11-25T03:59:40.682Z,99663.44
2022-11-25T04:00:22.685Z,99666.72
2022-11-25T04:01:14.323Z,99662.63
2022-11-25T04:01:58.389Z,99627.91
2022-11-25T04:02:40.162Z,99661.25
2022-11-25T04:03:21.824Z,99641.97
2022-11-25T04:04:04.286Z,99658.53
2022-11-25T04:04:46.124Z,99667.63
2022-11-25T04:05:27.865Z,99662.66
2022-11-25T04:06:13.016Z,99664.44
2022-11-25T04:06:55.020Z,99659.75
2022-11-25T04:07:37.342Z,99653.13
2022-11-25T04:08:21.505Z,99643.22
2022-11-25T04:09:03.512Z,99644.31
2022-11-25T04:09:46.043Z,99659.44
2022-11-25T04:10:31.331Z,99646.63
2022-11-25T04:11:13.476Z,99657.75
2022-11-25T04:12:17.658Z,99662.59
2022-11-25T04:13:09.691Z,99659.69
2022-11-25T04:13:55.138Z,99653.44
2022-11-25T04:14:37.566Z,99643.41
2022-11-25T04:15:19.365Z,99658.00
2022-11-25T04:16:05.748Z,99655.91
2022-11-25T04:16:47.636Z,99651.66
2022-11-25T04:17:29.541Z,99656.44
2022-11-25T04:18:11.811Z,99655.59
2022-11-25T04:18:53.874Z,99654.50
2022-11-25T04:19:35.674Z,99657.81
2022-11-25T04:20:18.090Z,99652.69
2022-11-25T04:21:05.708Z,99639.06
2022-11-25T04:21:52.177Z,99647.88
2022-11-25T04:22:34.497Z,99649.66
2022-11-25T04:23:18.517Z,99649.81
2022-11-25T04:24:09.576Z,99647.38
2022-11-25T04:24:51.336Z,99656.06
2022-11-25T04:25:39.176Z,99650.28
2022-11-25T04:26:26.861Z,99651.25
2022-11-25T04:27:08.681Z,99615.19
2022-11-25T04:27:50.572Z,99646.81
2022-11-25T04:28:37.713Z,99649.44
2022-11-25T04:29:19.676Z,99649.16
2022-11-25T04:30:02.901Z,99620.94
2022-11-25T04:30:45.393Z,99645.56
2022-11-25T04:31:27.801Z,99641.97
2022-11-25T04:32:09.544Z,99644.59
2022-11-25T04:32:51.709Z,99642.81
2022-11-25T04:33:33.516Z,99647.75
2022-11-25T04:34:15.416Z,99619.22
2022-11-25T04:34:58.986Z,99650.78
2022-11-25T04:35:40.851Z,99650.63
2022-11-25T04:36:23.783Z,99629.84
2022-11-25T04:37:05.619Z,99651.81
2022-11-25T04:37:47.407Z,99644.28
2022-11-25T04:38:29.184Z,99621.66
2022-11-25T04:39:13.387Z,99660.09
2022-11-25T04:39:55.652Z,99655.81
2022-11-25T04:40:37.815Z,99655.97
2022-11-25T04:41:31.332Z,99627.88
2022-11-25T04:42:32.202Z,99651.81
2022-11-25T04:43:15.594Z,99654.06
2022-11-25T04:44:03.616Z,99645.53
2022-11-25T04:45:00.978Z,99595.47
2022-11-25T04:46:12.403Z,99610.38
2022-11-25T04:46:46.194Z,99649.66
2022-11-25T04:47:29.952Z,99652.97
2022-11-25T04:48:11.916Z,99645.28
2022-11-25T04:48:53.573Z,99643.09
2022-11-25T04:49:36.351Z,99650.13
2022-11-25T04:50:22.076Z,99635.56
2022-11-25T04:51:13.694Z,99651.50
2022-11-25T04:51:55.355Z,99650.97
2022-11-25T04:52:37.090Z,99644.75
2022-11-25T04:53:18.843Z,99617.34
2022-11-25T04:54:00.569Z,99650.69
2022-11-25T04:54:42.490Z,99652.63
2022-11-25T04:55:24.201Z,99646.28
2022-11-25T04:56:06.207Z,99627.16
2022-11-25T04:56:57.374Z,99645.88
2022-11-25T04:57:39.389Z,99655.66
2022-11-25T04:58:41.080Z,99655.66
2022-11-25T04:59:41.684Z,99635.97
2022-11-25T05:00:25.511Z,99654.72
2022-11-25T05:01:08.559Z,99658.94
2022-11-25T05:01:51.252Z,99660.75
2022-11-25T05:02:46.733Z,99641.91
2022-11-25T05:03:33.595Z,99664.34
2022-11-25T05:04:16.027Z,99667.94
2022-11-25T05:04:58.768Z,99667.13
2022-11-25T05:05:40.511Z,99663.81
2022-11-25T05:06:22.692Z,99665.59
2022-11-25T05:07:04.575Z,99670.69
2022-11-25T05:07:46.369Z,99660.91
2022-11-25T05:08:29.167Z,99664.75
2022-11-25T05:09:11.295Z,99641.06
2022-11-25T05:09:55.400Z,99653.41
2022-11-25T05:11:00.277Z,99653.56
2022-11-25T05:11:42.460Z,99657.53
2022-11-25T05:12:27.039Z,99660.97
2022-11-25T05:13:08.740Z,99641.00
2022-11-25T05:13:50.337Z,99647.34
2022-11-25T05:14:32.606Z,99645.97
2022-11-25T05:15:14.483Z,99613.34
2022-11-25T05:16:00.224Z,99652.31
2022-11-25T05:16:42.136Z,99647.34
2022-11-25T05:17:27.353Z,99623.84
2022-11-25T05:18:09.897Z,99654.69
2022-11-25T05:19:00.361Z,99658.41
2022-11-25T05:19:42.045Z,99661.16
2022-11-25T05:20:24.350Z,99655.22
2022-11-25T05:21:07.447Z,99659.22
2022-11-25T05:21:52.755Z,99658.53
2022-11-25T05:22:35.344Z,99654.41
2022-11-25T05:23:18.511Z,99667.19
2022-11-25T05:24:00.150Z,99664.59
2022-11-25T05:24:44.801Z,99666.25
2022-11-25T05:25:28.206Z,99663.63
2022-11-25T05:26:22.136Z,99648.34
2022-11-25T05:27:07.270Z,99660.59
2022-11-25T05:27:48.990Z,99642.13
2022-11-25T05:28:31.375Z,99671.44
2022-11-25T05:29:13.331Z,99667.03
2022-11-25T05:29:56.375Z,99651.22
2022-11-25T05:30:39.522Z,99671.03
2022-11-25T05:31:21.369Z,99669.09
2022-11-25T05:32:05.597Z,99665.66
2022-11-25T05:32:47.611Z,99652.00
2022-11-25T05:33:29.796Z,99660.00
2022-11-25T05:34:11.570Z,99646.34
2022-11-25T05:34:53.374Z,99650.34
2022-11-25T05:35:35.093Z,99649.34
2022-11-25T05:36:17.370Z,99619.50
2022-11-25T05:37:01.233Z,99626.09
2022-11-25T05:37:44.935Z,99640.66
2022-11-25T05:38:27.654Z,99628.69
2022-11-25T05:39:09.420Z,99645.91
2022-11-25T05:40:20.673Z,99647.31
2022-11-25T05:41:11.820Z,99649.66
2022-11-25T05:41:55.608Z,99657.28
2022-11-25T05:42:37.912Z,99638.81
2022-11-25T05:43:22.220Z,99665.03
2022-11-25T05:44:05.447Z,99645.75
2022-11-25T05:44:48.251Z,99646.56
2022-11-25T05:45:30.048Z,99641.91
2022-11-25T05:46:12.684Z,99673.44
2022-11-25T05:47:00.791Z,99681.56
2022-11-25T05:47:42.910Z,99674.69
2022-11-25T05:48:25.790Z,99684.31
2022-11-25T05:49:08.003Z,99678.97
2022-11-25T05:49:49.751Z,99648.38
2022-11-25T05:50:31.828Z,99692.88
2022-11-25T05:51:29.677Z,99694.81
2022-11-25T05:52:13.522Z,99694.94
2022-11-25T05:53:03.866Z,99698.66
2022-11-25T05:53:45.592Z,99686.16
2022-11-25T05:54:27.804Z,99695.34
2022-11-25T05:55:10.029Z,99709.44
2022-11-25T05:56:00.485Z,99706.69
2022-11-25T05:57:20.692Z,99679.13
2022-11-25T05:58:09.816Z,99708.88
2022-11-25T05:58:51.893Z,99707.78
2022-11-25T05:59:33.729Z,99702.78
2022-11-25T06:00:27.468Z,99702.50
2022-11-25T06:01:11.558Z,99697.41
2022-11-25T06:01:54.539Z,99705.53
2022-11-25T06:02:36.786Z,99706.66
2022-11-25T06:03:19.117Z,99701.41
2022-11-25T06:04:03.348Z,99712.56
2022-11-25T06:04:45.077Z,99707.84
2022-11-25T06:05:26.983Z,99706.03
2022-11-25T06:06:10.449Z,99702.94
2022-11-25T06:06:53.201Z,99675.78
2022-11-25T06:07:36.047Z,99682.94
2022-11-25T06:08:18.426Z,99708.69
2022-11-25T06:09:02.291Z,99710.06
2022-11-25T06:09:45.083Z,99707.31
2022-11-25T06:10:26.934Z,99706.47
2022-11-25T06:11:12.069Z,99716.69
2022-11-25T06:11:53.911Z,99708.28
2022-11-25T06:12:36.073Z,99708.41
2022-11-25T06:13:18.501Z,99708.69
2022-11-25T06:14:00.323Z,99704.28
2022-11-25T06:14:43.726Z,99675.75
2022-11-25T06:15:25.827Z,99699.84
2022-11-25T06:16:13.113Z,99701.91
2022-11-25T06:16:55.145Z,99692.47
2022-11-25T06:17:51.782Z,99692.28
2022-11-25T06:18:39.410Z,99681.28
2022-11-25T06:19:23.079Z,99695.06
2022-11-25T06:20:07.591Z,99658.03
2022-11-25T06:20:57.556Z,99695.97
2022-11-25T06:21:39.493Z,99677.84
2022-11-25T06:22:21.633Z,99679.53
2022-11-25T06:23:04.141Z,99685.19
2022-11-25T06:23:48.505Z,99693.72
2022-11-25T06:24:33.438Z,99695.38
2022-11-25T06:25:19.828Z,99699.50
2022-11-25T06:26:08.694Z,99671.97
2022-11-25T06:26:51.163Z,99699.50
2022-11-25T06:27:56.852Z,99699.34
2022-11-25T06:28:36.352Z,99689.31
2022-11-25T06:29:18.024Z,99697.97
2022-11-25T06:30:03.680Z,99694.09
2022-11-25T06:30:45.697Z,99695.56
2022-11-25T06:31:41.337Z,99680.28
2022-11-25T06:32:43.667Z,99687.47
2022-11-25T06:33:36.281Z,99692.59
2022-11-25T06:34:20.011Z,99703.63
2022-11-25T06:35:01.704Z,99701.72
2022-11-25T06:36:16.850Z,99704.09
2022-11-25T06:36:58.472Z,99701.53
2022-11-25T06:37:40.461Z,99689.69
2022-11-25T06:38:22.106Z,99710.09
2022-11-25T06:39:03.822Z,99714.34
2022-11-25T06:39:45.739Z,99694.94
2022-11-25T06:40:27.470Z,99715.59
2022-11-25T06:41:09.133Z,99721.94
2022-11-25T06:41:50.922Z,99716.97
2022-11-25T06:42:32.712Z,99714.66
2022-11-25T06:43:14.370Z,99715.47
2022-11-25T06:43:56.049Z,99695.78
2022-11-25T06:44:37.867Z,99712.19
2022-11-25T06:45:19.898Z,99692.75
2022-11-25T06:46:13.254Z,99719.91
2022-11-25T06:46:55.076Z,99708.31
2022-11-25T06:47:36.859Z,99722.53
2022-11-25T06:48:18.620Z,99720.56
2022-11-25T06:49:00.410Z,99722.91
2022-11-25T06:49:42.098Z,99714.91
2022-11-25T06:50:23.813Z,99706.63
2022-11-25T06:51:13.184Z,99711.47
2022-11-25T06:51:54.956Z,99715.03
2022-11-25T06:52:37.073Z,99696.16
2022-11-25T06:53:23.817Z,99727.59
2022-11-25T06:54:06.100Z,99713.25
2022-11-25T06:54:47.810Z,99699.75
2022-11-25T06:55:29.472Z,99722.59
2022-11-25T06:56:20.064Z,99733.06
2022-11-25T06:57:01.959Z,99733.22
2022-11-25T06:57:43.651Z,99721.91
2022-11-25T06:58:35.304Z,99707.72
2022-11-25T06:59:18.321Z,99715.44
2022-11-25T07:00:00.040Z,99725.91
2022-11-25T07:00:41.819Z,99701.38
2022-11-25T07:01:26.151Z,99716.94
2022-11-25T07:02:11.672Z,99724.22
2022-11-25T07:02:53.526Z,99726.00
2022-11-25T07:03:35.709Z,99730.69
2022-11-25T07:04:17.425Z,99735.66
2022-11-25T07:04:59.143Z,99719.81
2022-11-25T07:05:40.769Z,99741.97
2022-11-25T07:06:22.788Z,99737.16
2022-11-25T07:07:04.615Z,99742.78
2022-11-25T07:07:46.348Z,99718.38
2022-11-25T07:08:33.719Z,99722.63
2022-11-25T07:09:15.999Z,99744.25
2022-11-25T07:09:57.636Z,99739.84
2022-11-25T07:10:39.309Z,99746.31
2022-11-25T07:11:33.149Z,99749.50
2022-11-25T07:12:14.875Z,99750.59
2022-11-25T07:12:57.395Z,99733.53
2022-11-25T07:13:39.036Z,99732.69
2022-11-25T07:14:20.786Z,99740.66
2022-11-25T07:15:02.531Z,99756.22
2022-11-25T07:15:44.292Z,99749.63
2022-11-25T07:16:28.331Z,99755.38
2022-11-25T07:17:12.146Z,99758.38
2022-11-25T07:17:53.939Z,99760.16
2022-11-25T07:18:38.381Z,99765.53
2022-11-25T07:19:20.413Z,99759.31
2022-11-25T07:20:02.049Z,99764.81
2022-11-25T07:20:43.740Z,99768.94
2022-11-25T07:21:25.818Z,99774.41
2022-11-25T07:22:09.805Z,99771.50
2022-11-25T07:22:51.439Z,99731.44
2022-11-25T07:23:34.392Z,99754.31
2022-11-25T07:24:18.461Z,99751.69
2022-11-25T07:25:00.174Z,99763.16
2022-11-25T07:25:41.854Z,99770.03
2022-11-25T07:26:25.769Z,99772.91
2022-11-25T07:27:08.232Z,99760.38
2022-11-25T07:27:50.031Z,99756.38
2022-11-25T07:28:35.623Z,99730.63
2022-11-25T07:29:44.319Z,99742.34
2022-11-25T07:31:31.116Z,99770.97
2022-11-25T07:32:14.096Z,99781.72
2022-11-25T07:32:55.973Z,99766.53
2022-11-25T07:33:37.816Z,99759.78
2022-11-25T07:34:21.452Z,99780.16
2022-11-25T07:35:03.601Z,99761.69
2022-11-25T07:35:45.333Z,99769.78
2022-11-25T07:36:27.897Z,99772.97
2022-11-25T07:37:09.567Z,99793.06
2022-11-25T07:37:51.201Z,99784.38
2022-11-25T07:38:34.020Z,99792.03
2022-11-25T07:39:21.897Z,99797.28
2022-11-25T07:40:03.951Z,99764.81
2022-11-25T07:40:45.623Z,99774.88
2022-11-25T07:41:28.453Z,99795.00
2022-11-25T07:42:10.175Z,99765.69
2022-11-25T07:42:51.877Z,99776.56
2022-11-25T07:43:37.112Z,99796.25
2022-11-25T07:44:19.848Z,99765.97
2022-11-25T07:45:07.540Z,99804.84
2022-11-25T07:45:57.103Z,99789.16
2022-11-25T07:46:42.236Z,99804.16
2022-11-25T07:47:25.367Z,99777.72
2022-11-25T07:48:07.064Z,99778.94
2022-11-25T07:48:49.112Z,99789.66
2022-11-25T07:49:30.836Z,99774.81
2022-11-25T07:50:12.545Z,99792.16
2022-11-25T07:50:54.233Z,99760.75
2022-11-25T07:51:38.505Z,99795.41
2022-11-25T07:52:20.233Z,99768.78
2022-11-25T07:53:02.011Z,99749.34
2022-11-25T07:53:44.361Z,99774.06
2022-11-25T07:54:26.610Z,99780.56
2022-11-25T07:55:08.869Z,99784.22
2022-11-25T07:55:50.756Z,99775.09
2022-11-25T07:56:34.730Z,99775.31
2022-11-25T07:57:16.471Z,99775.84
2022-11-25T07:57:58.221Z,99769.31
2022-11-25T07:58:45.617Z,99777.72
2022-11-25T07:59:29.199Z,99733.66
2022-11-25T08:00:11.493Z,99772.47
2022-11-25T08:00:56.714Z,99776.38
2022-11-25T08:01:38.659Z,99751.88
2022-11-25T08:02:20.460Z,99779.16
2022-11-25T08:03:02.321Z,99757.44
2022-11-25T08:03:45.528Z,99781.84
2022-11-25T08:04:27.312Z,99772.66
2022-11-25T08:05:09.368Z,99779.56
2022-11-25T08:05:51.090Z,99780.84
2022-11-25T08:06:32.832Z,99772.41
2022-11-25T08:07:14.616Z,99740.50
2022-11-25T08:07:56.505Z,99760.47
2022-11-25T08:08:39.349Z,99780.75
2022-11-25T08:09:23.530Z,99766.41
2022-11-25T08:10:05.723Z,99777.16
2022-11-25T08:10:47.905Z,99750.63
2022-11-25T08:11:31.188Z,99776.06
2022-11-25T08:12:13.007Z,99772.63
2022-11-25T08:12:54.723Z,99779.66
2022-11-25T08:13:36.719Z,99784.22
2022-11-25T08:14:19.413Z,99779.81
2022-11-25T08:15:01.172Z,99779.97
2022-11-25T08:15:42.876Z,99752.28
2022-11-25T08:16:31.196Z,99749.66
2022-11-25T08:17:13.215Z,99793.38
2022-11-25T08:17:55.012Z,99769.41
2022-11-25T08:18:36.723Z,99765.97
2022-11-25T08:19:18.750Z,99763.63
2022-11-25T08:20:00.547Z,99787.44
2022-11-25T08:20:42.239Z,99790.63
2022-11-25T08:21:24.829Z,99784.97
2022-11-25T08:22:06.865Z,99797.34
2022-11-25T08:22:48.616Z,99788.38
2022-11-25T08:23:31.584Z,99766.06
2022-11-25T08:24:16.374Z,99802.88
2022-11-25T08:24:58.213Z,99789.34
2022-11-25T08:25:44.981Z,99802.25
2022-11-25T08:26:33.867Z,99792.31
2022-11-25T08:27:17.664Z,99789.31
2022-11-25T08:28:00.236Z,99783.47
2022-11-25T08:28:42.480Z,99795.69
2022-11-25T08:29:24.365Z,99801.34
2022-11-25T08:30:06.893Z,99767.03
2022-11-25T08:30:48.738Z,99778.59
2022-11-25T08:31:33.885Z,99804.44
2022-11-25T08:32:15.687Z,99789.94
2022-11-25T08:32:58.554Z,99758.94
2022-11-25T08:33:40.893Z,99802.28
2022-11-25T08:34:24.722Z,99799.06
2022-11-25T08:35:12.448Z,99767.47
2022-11-25T08:35:54.589Z,99798.53
2022-11-25T08:36:36.561Z,99779.09
2022-11-25T08:37:18.292Z,99783.06
2022-11-25T08:38:02.539Z,99784.41
2022-11-25T08:38:46.417Z,99772.19
2022-11-25T08:39:51.254Z,99796.16
2022-11-25T08:40:30.432Z,99789.09